Time;durP1;ratioP1;P1;durP2;ratioP2;P2;SDS_P1;SDS_P2;PMS_P1;PMS_P2;Temp;Humidity;BMP_temperature;BMP_pressure;BME280_temperature;BME280_humidity;BME280_pressure;Samples;Min_cycle;Max_cycle;Signal;HPM_P1;HPM_P2
2022/06/04 00:01:50;;;;;;;1999.90;999.90;;;;;;;;;;5177772;27;20737;-75
2022/06/04 00:04:18;;;;;;;1999.90;999.90;;;;;;;;;;5180272;27;20393;-76
2022/06/04 00:06:48;;;;;;;1999.90;999.90;;;;;;;;;;5161460;27;20883;-75
2022/06/04 00:09:18;;;;;;;1999.90;999.90;;;;;;;;;;5188056;27;21385;-75
2022/06/04 00:17:17;;;;;;;1999.90;999.90;;;;;;;;;;5173268;27;20872;-74
2022/06/04 00:19:45;;;;;;;1999.90;999.90;;;;;;;;;;5159847;27;20224;-74
2022/06/04 00:22:14;;;;;;;1999.90;999.90;;;;;;;;;;5160351;27;20233;-74
2022/06/04 00:24:42;;;;;;;1999.90;999.90;;;;;;;;;;5159631;27;20223;-74
2022/06/04 00:27:14;;;;;;;1999.90;999.90;;;;;;;;;;5169858;27;20263;-75
2022/06/04 00:29:42;;;;;;;1999.90;999.90;;;;;;;;;;5163435;27;20702;-73
2022/06/04 00:32:12;;;;;;;1999.90;999.90;;;;;;;;;;5177679;27;20373;-74
2022/06/04 00:34:39;;;;;;;1999.90;999.90;;;;;;;;;;5158701;27;20483;-73
2022/06/04 00:37:07;;;;;;;1999.90;999.90;;;;;;;;;;5158043;27;20486;-75
2022/06/04 00:39:40;;;;;;;1999.90;999.90;;;;;;;;;;5185971;27;20921;-73
2022/06/04 00:42:09;;;;;;;1999.90;999.90;;;;;;;;;;5156451;27;21218;-74
2022/06/04 00:44:52;;;;;;;1999.90;999.90;;;;;;;;;;5187885;27;20436;-73
2022/06/04 00:47:22;;;;;;;1999.90;999.90;;;;;;;;;;5160218;27;20405;-75
2022/06/04 00:49:51;;;;;;;1999.90;999.90;;;;;;;;;;5166865;27;20426;-72
2022/06/04 00:52:20;;;;;;;1999.90;999.90;;;;;;;;;;5172257;27;20536;-74
2022/06/04 00:54:52;;;;;;;1999.90;999.90;;;;;;;;;;5168052;27;20516;-74
2022/06/04 00:57:37;;;;;;;1999.90;999.90;;;;;;;;;;5169007;27;20408;-74
2022/06/04 01:00:06;;;;;;;1999.90;999.90;;;;;;;;;;5146101;27;20398;-75
2022/06/04 01:02:42;;;;;;;1999.90;999.90;;;;;;;;;;5183221;27;20389;-74
2022/06/04 01:05:14;;;;;;;1999.90;999.90;;;;;;;;;;5185516;27;20424;-75
2022/06/04 01:07:49;;;;;;;1999.90;999.90;;;;;;;;;;5174619;27;20397;-75
2022/06/04 01:10:30;;;;;;;1999.90;999.90;;;;;;;;;;5159657;27;20393;-74
2022/06/04 01:13:04;;;;;;;1999.90;999.90;;;;;;;;;;5173692;27;20404;-74
2022/06/04 01:15:46;;;;;;;1999.90;999.90;;;;;;;;;;5162320;27;20393;-75
2022/06/04 01:18:22;;;;;;;1999.90;999.90;;;;;;;;;;5179252;27;20390;-76
2022/06/04 01:20:54;;;;;;;1999.90;999.90;;;;;;;;;;5160150;27;20422;-73
2022/06/04 01:23:42;;;;;;;1999.90;999.90;;;;;;;;;;5159532;27;21462;-76
2022/06/04 01:26:21;;;;;;;1999.90;999.90;;;;;;;;;;5173558;27;20402;-77
2022/06/04 01:28:51;;;;;;;1999.90;999.90;;;;;;;;;;5145210;27;20280;-76
2022/06/04 01:31:21;;;;;;;1999.90;999.90;;;;;;;;;;5178268;27;20648;-73
2022/06/04 01:33:52;;;;;;;1999.90;999.90;;;;;;;;;;5181074;27;20487;-74
2022/06/04 01:36:22;;;;;;;1999.90;999.90;;;;;;;;;;5160341;27;21337;-75
2022/06/04 01:38:53;;;;;;;1999.90;999.90;;;;;;;;;;5176650;27;20396;-74
2022/06/04 01:41:23;;;;;;;1999.90;999.90;;;;;;;;;;5173251;27;22953;-72
2022/06/04 01:43:53;;;;;;;1999.90;999.90;;;;;;;;;;5160155;27;20413;-74
2022/06/04 01:46:23;;;;;;;1999.90;999.90;;;;;;;;;;5176621;27;20496;-75
2022/06/04 01:48:52;;;;;;;1999.90;999.90;;;;;;;;;;5170543;27;20226;-74
2022/06/04 01:51:21;;;;;;;1999.90;999.90;;;;;;;;;;5175348;27;20307;-74
2022/06/04 01:53:52;;;;;;;1999.90;999.90;;;;;;;;;;5175191;27;20473;-74
2022/06/04 01:56:22;;;;;;;1999.90;999.90;;;;;;;;;;5161354;27;20407;-75
2022/06/04 01:58:54;;;;;;;1999.90;999.90;;;;;;;;;;5180885;27;20854;-74
2022/06/04 02:01:24;;;;;;;1999.90;999.90;;;;;;;;;;5177822;27;20389;-74
2022/06/04 02:03:56;;;;;;;1999.90;999.90;;;;;;;;;;5177264;27;20381;-74
2022/06/04 02:06:25;;;;;;;1999.90;999.90;;;;;;;;;;5174018;27;20959;-75
2022/06/04 02:08:54;;;;;;;1999.90;999.90;;;;;;;;;;5170802;27;20413;-75
2022/06/04 02:11:22;;;;;;;1999.90;999.90;;;;;;;;;;5176149;27;20879;-75
2022/06/04 02:13:53;;;;;;;1999.90;999.90;;;;;;;;;;5180375;27;20393;-75
2022/06/04 02:16:23;;;;;;;1999.90;999.90;;;;;;;;;;5156821;27;20406;-75
2022/06/04 02:18:52;;;;;;;1999.90;999.90;;;;;;;;;;5160254;27;20467;-75
2022/06/04 02:21:20;;;;;;;1999.90;999.90;;;;;;;;;;5156552;27;20396;-74
2022/06/04 02:23:48;;;;;;;1999.90;999.90;;;;;;;;;;5158102;27;20404;-76
2022/06/04 02:26:16;;;;;;;1999.90;999.90;;;;;;;;;;5172977;27;20407;-74
2022/06/04 02:28:45;;;;;;;1999.90;999.90;;;;;;;;;;5165659;27;20476;-75
2022/06/04 02:31:22;;;;;;;1999.90;999.90;;;;;;;;;;5156510;27;20418;-73
2022/06/04 02:33:54;;;;;;;1999.90;999.90;;;;;;;;;;5163323;27;20419;-75
2022/06/04 02:36:26;;;;;;;1999.90;999.90;;;;;;;;;;5174354;27;20737;-75
2022/06/04 02:38:57;;;;;;;1999.90;999.90;;;;;;;;;;5150227;27;21221;-72
2022/06/04 02:41:28;;;;;;;1999.90;999.90;;;;;;;;;;5158429;27;20463;-74
2022/06/04 02:44:03;;;;;;;1999.90;999.90;;;;;;;;;;5157791;27;20392;-74
2022/06/04 02:46:34;;;;;;;1999.90;999.90;;;;;;;;;;5169193;27;20401;-73
2022/06/04 02:49:06;;;;;;;1999.90;999.90;;;;;;;;;;5150687;27;20401;-75
2022/06/04 02:51:35;;;;;;;1999.90;999.90;;;;;;;;;;5147233;27;20404;-75
2022/06/04 02:54:05;;;;;;;1999.90;999.90;;;;;;;;;;5166948;27;20386;-75
2022/06/04 02:56:34;;;;;;;1999.90;999.90;;;;;;;;;;5173326;27;20397;-74
2022/06/04 02:59:05;;;;;;;1999.90;999.90;;;;;;;;;;5173344;27;20401;-74
2022/06/04 03:01:37;;;;;;;1999.90;999.90;;;;;;;;;;5173885;27;20393;-76
2022/06/04 03:04:06;;;;;;;1999.90;999.90;;;;;;;;;;5175153;27;20424;-74
2022/06/04 03:06:34;;;;;;;1999.90;999.90;;;;;;;;;;5168645;27;20398;-74
2022/06/04 03:09:03;;;;;;;1999.90;999.90;;;;;;;;;;5138390;27;20385;-73
2022/06/04 03:11:31;;;;;;;1999.90;999.90;;;;;;;;;;5161849;27;20383;-75
2022/06/04 03:13:58;;;;;;;1999.90;999.90;;;;;;;;;;5176680;27;20393;-76
2022/06/04 03:16:36;;;;;;;1999.90;999.90;;;;;;;;;;5175111;27;20408;-76
2022/06/04 03:19:04;;;;;;;1999.90;999.90;;;;;;;;;;5160658;27;20389;-75
2022/06/04 03:21:31;;;;;;;1999.90;999.90;;;;;;;;;;5170265;27;20414;-73
2022/06/04 03:23:59;;;;;;;1999.90;999.90;;;;;;;;;;5173326;27;20382;-75
2022/06/04 03:26:27;;;;;;;1999.90;999.90;;;;;;;;;;5168704;27;20404;-75
2022/06/04 03:28:55;;;;;;;1999.90;999.90;;;;;;;;;;5176971;27;20402;-75
2022/06/04 03:31:23;;;;;;;1999.90;999.90;;;;;;;;;;5133354;27;20408;-75
2022/06/04 03:33:52;;;;;;;1999.90;999.90;;;;;;;;;;5155450;27;20759;-74
2022/06/04 03:36:21;;;;;;;1999.90;999.90;;;;;;;;;;5159237;27;20889;-73
2022/06/04 03:38:49;;;;;;;1999.90;999.90;;;;;;;;;;5173684;27;20386;-73
2022/06/04 03:41:16;;;;;;;1999.90;999.90;;;;;;;;;;5172841;27;20870;-72
2022/06/04 03:43:46;;;;;;;1999.90;999.90;;;;;;;;;;5175232;27;20963;-75
2022/06/04 03:46:14;;;;;;;1999.90;999.90;;;;;;;;;;5157792;27;20398;-75
2022/06/04 03:48:43;;;;;;;1999.90;999.90;;;;;;;;;;5172313;27;20427;-75
2022/06/04 03:51:12;;;;;;;1999.90;999.90;;;;;;;;;;5155687;27;20478;-75
2022/06/04 03:53:40;;;;;;;1999.90;999.90;;;;;;;;;;5170599;27;20433;-75
2022/06/04 03:56:08;;;;;;;1999.90;999.90;;;;;;;;;;5175737;27;20705;-74
2022/06/04 03:58:36;;;;;;;1999.90;999.90;;;;;;;;;;5160379;27;20416;-75
2022/06/04 04:01:12;;;;;;;1999.90;999.90;;;;;;;;;;5175454;27;21050;-74
2022/06/04 04:03:40;;;;;;;1999.90;999.90;;;;;;;;;;5180061;27;20573;-75
2022/06/04 04:06:13;;;;;;;1999.90;999.90;;;;;;;;;;5170202;27;20469;-75
2022/06/04 04:08:41;;;;;;;1999.90;999.90;;;;;;;;;;5139033;27;20376;-75
2022/06/04 04:11:10;;;;;;;1999.90;999.90;;;;;;;;;;5159594;27;20506;-75
2022/06/04 04:13:38;;;;;;;1999.90;999.90;;;;;;;;;;5170886;27;20886;-75
2022/06/04 04:16:06;;;;;;;1999.90;999.90;;;;;;;;;;5158666;27;20412;-74
2022/06/04 04:18:35;;;;;;;1999.90;999.90;;;;;;;;;;5156864;27;20434;-73
2022/06/04 04:21:06;;;;;;;1999.90;999.90;;;;;;;;;;5157635;27;20429;-75
2022/06/04 04:23:36;;;;;;;1999.90;999.90;;;;;;;;;;5153290;27;20393;-71
2022/06/04 04:26:04;;;;;;;1999.90;999.90;;;;;;;;;;5172297;27;20489;-75
2022/06/04 04:28:33;;;;;;;1999.90;999.90;;;;;;;;;;5154946;27;20393;-75
2022/06/04 04:31:01;;;;;;;1999.90;999.90;;;;;;;;;;5146585;27;20401;-73
2022/06/04 04:33:29;;;;;;;1999.90;999.90;;;;;;;;;;5161901;27;20380;-74
2022/06/04 04:35:56;;;;;;;1999.90;999.90;;;;;;;;;;5184924;27;20417;-74
2022/06/04 04:38:24;;;;;;;1999.90;999.90;;;;;;;;;;5187451;27;20443;-75
2022/06/04 04:40:53;;;;;;;1999.90;999.90;;;;;;;;;;5166703;27;20484;-74
2022/06/04 04:43:21;;;;;;;1999.90;999.90;;;;;;;;;;5174689;27;20434;-73
2022/06/04 04:45:50;;;;;;;1999.90;999.90;;;;;;;;;;5181181;27;20396;-74
2022/06/04 04:48:21;;;;;;;1999.90;999.90;;;;;;;;;;5174357;27;20366;-72
2022/06/04 04:50:49;;;;;;;1999.90;999.90;;;;;;;;;;5146123;27;20376;-74
2022/06/04 04:53:17;;;;;;;1999.90;999.90;;;;;;;;;;5177291;27;20886;-74
2022/06/04 04:55:46;;;;;;;1999.90;999.90;;;;;;;;;;5158731;27;20399;-74
2022/06/04 04:58:15;;;;;;;1999.90;999.90;;;;;;;;;;5169127;27;20373;-74
2022/06/04 05:00:44;;;;;;;1999.90;999.90;;;;;;;;;;5179124;27;20405;-74
2022/06/04 05:03:12;;;;;;;1999.90;999.90;;;;;;;;;;5177459;27;20385;-75
2022/06/04 05:05:39;;;;;;;1999.90;999.90;;;;;;;;;;5142438;27;20539;-75
2022/06/04 05:08:07;;;;;;;1999.90;999.90;;;;;;;;;;5182381;27;20401;-75
2022/06/04 05:10:35;;;;;;;1999.90;999.90;;;;;;;;;;5181430;27;20424;-77
2022/06/04 05:13:03;;;;;;;1999.90;999.90;;;;;;;;;;5180099;27;20419;-76
2022/06/04 05:15:32;;;;;;;1999.90;999.90;;;;;;;;;;5142057;27;20394;-74
2022/06/04 05:18:00;;;;;;;1999.90;999.90;;;;;;;;;;5142369;27;21321;-74
2022/06/04 05:20:28;;;;;;;1999.90;999.90;;;;;;;;;;5159342;27;20419;-75
2022/06/04 05:22:56;;;;;;;1999.90;999.90;;;;;;;;;;5164177;27;20571;-74
2022/06/04 05:25:24;;;;;;;1999.90;999.90;;;;;;;;;;5144563;27;21841;-74
2022/06/04 05:27:52;;;;;;;1999.90;999.90;;;;;;;;;;5153799;27;20382;-73
2022/06/04 05:30:20;;;;;;;1999.90;999.90;;;;;;;;;;5178513;27;20409;-74
2022/06/04 05:32:49;;;;;;;1999.90;999.90;;;;;;;;;;5158317;27;20423;-75
2022/06/04 05:35:16;;;;;;;1999.90;999.90;;;;;;;;;;5178707;27;20398;-74
2022/06/04 05:37:44;;;;;;;1999.90;999.90;;;;;;;;;;5178111;27;20426;-75
2022/06/04 05:40:12;;;;;;;1999.90;999.90;;;;;;;;;;5154209;27;20378;-73
2022/06/04 05:42:41;;;;;;;1999.90;999.90;;;;;;;;;;5166295;27;20488;-75
2022/06/04 05:45:09;;;;;;;1999.90;999.90;;;;;;;;;;5180486;27;21173;-73
2022/06/04 05:47:37;;;;;;;1999.90;999.90;;;;;;;;;;5156674;27;21391;-74
2022/06/04 05:50:07;;;;;;;1999.90;999.90;;;;;;;;;;5184077;27;20408;-72
2022/06/04 05:52:35;;;;;;;1999.90;999.90;;;;;;;;;;5171751;27;20378;-73
2022/06/04 05:55:02;;;;;;;1999.90;999.90;;;;;;;;;;5171513;27;20754;-73
2022/06/04 05:57:30;;;;;;;1999.90;999.90;;;;;;;;;;5159185;27;20389;-75
2022/06/04 05:59:58;;;;;;;1999.90;999.90;;;;;;;;;;5167123;27;20394;-74
2022/06/04 06:02:26;;;;;;;1999.90;999.90;;;;;;;;;;5178563;27;21218;-74
2022/06/04 06:04:54;;;;;;;1999.90;999.90;;;;;;;;;;5176074;27;20400;-73
2022/06/04 06:07:23;;;;;;;1999.90;999.90;;;;;;;;;;5173755;27;20382;-72
2022/06/04 06:09:50;;;;;;;1999.90;999.90;;;;;;;;;;5160660;27;20388;-75
2022/06/04 06:12:18;;;;;;;1999.90;999.90;;;;;;;;;;5143667;27;20402;-74
2022/06/04 06:14:46;;;;;;;1999.90;999.90;;;;;;;;;;5163386;27;20407;-73
2022/06/04 06:17:14;;;;;;;1999.90;999.90;;;;;;;;;;5176641;27;21271;-75
2022/06/04 06:19:42;;;;;;;1999.90;999.90;;;;;;;;;;5178327;27;21209;-75
2022/06/04 06:22:10;;;;;;;1999.90;999.90;;;;;;;;;;5166885;27;20795;-73
2022/06/04 06:24:39;;;;;;;1999.90;999.90;;;;;;;;;;5175923;27;20404;-74
2022/06/04 06:27:08;;;;;;;1999.90;999.90;;;;;;;;;;5171410;27;20384;-77
2022/06/04 06:29:36;;;;;;;1999.90;999.90;;;;;;;;;;5173289;27;20395;-73
2022/06/04 06:32:04;;;;;;;1999.90;999.90;;;;;;;;;;5159426;27;20437;-73
2022/06/04 06:34:32;;;;;;;1999.90;999.90;;;;;;;;;;5179723;27;20414;-75
2022/06/04 06:36:59;;;;;;;1999.90;999.90;;;;;;;;;;5179606;27;20383;-73
2022/06/04 06:39:27;;;;;;;1999.90;999.90;;;;;;;;;;5182293;27;20407;-75
2022/06/04 06:41:57;;;;;;;1999.90;999.90;;;;;;;;;;5137551;27;20400;-72
2022/06/04 06:44:40;;;;;;;1999.90;999.90;;;;;;;;;;5137667;27;20412;-74
2022/06/04 06:47:08;;;;;;;1999.90;999.90;;;;;;;;;;5179309;27;20377;-71
2022/06/04 06:49:36;;;;;;;1999.90;999.90;;;;;;;;;;5179257;27;20397;-76
2022/06/04 06:52:11;;;;;;;1999.90;999.90;;;;;;;;;;5156927;27;20485;-75
2022/06/04 06:54:39;;;;;;;1999.90;999.90;;;;;;;;;;5165347;27;20878;-74
2022/06/04 06:57:11;;;;;;;1999.90;999.90;;;;;;;;;;5173714;27;20382;-74
2022/06/04 06:59:43;;;;;;;1999.90;999.90;;;;;;;;;;5181802;27;21307;-73
2022/06/04 07:02:12;;;;;;;1999.90;999.90;;;;;;;;;;5174702;27;20381;-74
2022/06/04 07:04:40;;;;;;;1999.90;999.90;;;;;;;;;;5170877;27;20407;-74
2022/06/04 07:07:08;;;;;;;1999.90;999.90;;;;;;;;;;5142744;27;20399;-75
2022/06/04 07:09:36;;;;;;;1999.90;999.90;;;;;;;;;;5158499;27;20396;-76
2022/06/04 07:12:05;;;;;;;1999.90;999.90;;;;;;;;;;5129469;27;20386;-76
2022/06/04 07:14:34;;;;;;;1999.90;999.90;;;;;;;;;;5165960;27;20400;-75
2022/06/04 07:17:05;;;;;;;1999.90;999.90;;;;;;;;;;5148401;27;20394;-76
2022/06/04 07:19:33;;;;;;;1999.90;999.90;;;;;;;;;;5166636;27;20525;-77
2022/06/04 07:22:01;;;;;;;1999.90;999.90;;;;;;;;;;5174131;27;20426;-75
2022/06/04 07:24:29;;;;;;;1999.90;999.90;;;;;;;;;;5168727;27;20406;-78
2022/06/04 07:26:57;;;;;;;1999.90;999.90;;;;;;;;;;5169928;27;21056;-68
2022/06/04 07:29:26;;;;;;;1999.90;999.90;;;;;;;;;;5147041;27;20236;-74
2022/06/04 07:31:56;;;;;;;1999.90;999.90;;;;;;;;;;5177090;27;20709;-74
2022/06/04 07:34:23;;;;;;;1999.90;999.90;;;;;;;;;;5149390;27;21201;-73
2022/06/04 07:36:52;;;;;;;1999.90;999.90;;;;;;;;;;5171449;27;20381;-72
2022/06/04 07:39:20;;;;;;;1999.90;999.90;;;;;;;;;;5148648;27;20474;-71
2022/06/04 07:41:51;;;;;;;1999.90;999.90;;;;;;;;;;5174034;27;20400;-73
2022/06/04 07:44:19;;;;;;;1999.90;999.90;;;;;;;;;;5156490;27;21639;-69
2022/06/04 07:46:47;;;;;;;1999.90;999.90;;;;;;;;;;5167023;27;20440;-72
2022/06/04 07:49:18;;;;;;;1999.90;999.90;;;;;;;;;;5149058;27;20413;-74
2022/06/04 07:51:46;;;;;;;1999.90;999.90;;;;;;;;;;5151626;27;20887;-72
2022/06/04 07:54:15;;;;;;;1999.90;999.90;;;;;;;;;;5148674;27;20475;-71
2022/06/04 07:56:43;;;;;;;1999.90;999.90;;;;;;;;;;5146285;27;21292;-70
2022/06/04 07:59:13;;;;;;;1999.90;999.90;;;;;;;;;;5147210;27;20819;-71
2022/06/04 08:01:41;;;;;;;1999.90;999.90;;;;;;;;;;5171735;27;20799;-71
2022/06/04 08:04:10;;;;;;;1999.90;999.90;;;;;;;;;;5148887;27;20731;-71
2022/06/04 08:06:40;;;;;;;1999.90;999.90;;;;;;;;;;5155345;27;20774;-71
2022/06/04 08:09:08;;;;;;;1999.90;999.90;;;;;;;;;;5172517;27;20453;-74
2022/06/04 08:11:36;;;;;;;1999.90;999.90;;;;;;;;;;5171577;27;21518;-71
2022/06/04 08:14:06;;;;;;;1999.90;999.90;;;;;;;;;;5156550;27;20396;-73
2022/06/04 08:16:33;;;;;;;1999.90;999.90;;;;;;;;;;5170396;27;21043;-75
2022/06/04 08:19:01;;;;;;;1999.90;999.90;;;;;;;;;;5174473;27;20384;-76
2022/06/04 08:21:29;;;;;;;1999.90;999.90;;;;;;;;;;5175703;27;20425;-70
2022/06/04 08:23:58;;;;;;;1999.90;999.90;;;;;;;;;;5139887;27;20388;-71
2022/06/04 08:26:26;;;;;;;1999.90;999.90;;;;;;;;;;5149503;27;20810;-67
2022/06/04 09:05:27;;;;;;;1999.90;999.90;;;;;;;;;;5132579;27;20973;-74
2022/06/04 09:07:59;;;;;;;1999.90;999.90;;;;;;;;;;5125486;27;20429;-73
2022/06/04 09:10:30;;;;;;;1999.90;999.90;;;;;;;;;;5125646;27;20383;-71
2022/06/04 09:13:00;;;;;;;1999.90;999.90;;;;;;;;;;5123900;27;20976;-73
2022/06/04 09:15:31;;;;;;;1999.90;999.90;;;;;;;;;;5124049;27;21383;-73
2022/06/04 09:18:00;;;;;;;1999.90;999.90;;;;;;;;;;5126601;27;20389;-73
2022/06/04 09:20:32;;;;;;;1999.90;999.90;;;;;;;;;;5122288;27;20418;-73
2022/06/04 09:23:04;;;;;;;1999.90;999.90;;;;;;;;;;5128080;27;20495;-73
2022/06/04 09:25:37;;;;;;;1999.90;999.90;;;;;;;;;;5121182;27;20456;-73
2022/06/04 09:28:09;;;;;;;1999.90;999.90;;;;;;;;;;5147628;27;21066;-73
2022/06/04 09:30:40;;;;;;;1999.90;999.90;;;;;;;;;;5145257;27;20382;-73
2022/06/04 09:33:28;;;;;;;1999.90;999.90;;;;;;;;;;5143191;27;20355;-73
2022/06/04 09:35:58;;;;;;;1999.90;999.90;;;;;;;;;;5133795;27;20434;-73
2022/06/04 09:38:27;;;;;;;1999.90;999.90;;;;;;;;;;5122686;27;20411;-72
2022/06/04 09:41:00;;;;;;;1999.90;999.90;;;;;;;;;;5115157;27;20391;-72
2022/06/04 09:43:28;;;;;;;1999.90;999.90;;;;;;;;;;5125336;27;20395;-72
2022/06/04 09:46:06;;;;;;;1999.90;999.90;;;;;;;;;;5108243;27;20501;-72
2022/06/04 09:48:35;;;;;;;1999.90;999.90;;;;;;;;;;5127711;27;20387;-73
2022/06/04 09:51:06;;;;;;;1999.90;999.90;;;;;;;;;;5125293;27;20383;-73
2022/06/04 09:53:36;;;;;;;1999.90;999.90;;;;;;;;;;5128530;27;20406;-72
2022/06/04 09:56:07;;;;;;;1999.90;999.90;;;;;;;;;;5127329;27;20414;-72
2022/06/04 09:58:36;;;;;;;1999.90;999.90;;;;;;;;;;5122564;27;20406;-72
2022/06/04 10:01:06;;;;;;;1999.90;999.90;;;;;;;;;;5126002;27;20472;-73
2022/06/04 10:03:36;;;;;;;1999.90;999.90;;;;;;;;;;5121988;27;20386;-72
2022/06/04 10:06:08;;;;;;;1999.90;999.90;;;;;;;;;;5108673;27;20503;-73
2022/06/04 10:11:19;;;;;;;1999.90;999.90;;;;;;;;;;5127381;27;20402;-74
2022/06/04 10:13:48;;;;;;;1999.90;999.90;;;;;;;;;;5121535;27;21280;-73
2022/06/04 10:16:17;;;;;;;1999.90;999.90;;;;;;;;;;5110503;27;22667;-72
2022/06/04 10:18:58;;;;;;;1999.90;999.90;;;;;;;;;;5111015;27;20388;-72
2022/06/04 10:21:29;;;;;;;1999.90;999.90;;;;;;;;;;5110602;27;20474;-72
2022/06/04 10:23:58;;;;;;;1999.90;999.90;;;;;;;;;;5112383;27;20396;-74
2022/06/04 10:26:38;;;;;;;1999.90;999.90;;;;;;;;;;5111895;27;20401;-73
2022/06/04 10:29:18;;;;;;;1999.90;999.90;;;;;;;;;;5109503;27;20399;-74
2022/06/04 10:31:50;;;;;;;1999.90;999.90;;;;;;;;;;5108100;27;20907;-72
2022/06/04 10:34:24;;;;;;;1999.90;999.90;;;;;;;;;;5110818;27;20383;-73
2022/06/04 10:36:57;;;;;;;1999.90;999.90;;;;;;;;;;5110456;27;20410;-73
2022/06/04 10:39:32;;;;;;;1999.90;999.90;;;;;;;;;;5112274;27;20409;-73
2022/06/04 10:42:06;;;;;;;1999.90;999.90;;;;;;;;;;5124763;27;20782;-73
2022/06/04 10:44:44;;;;;;;1999.90;999.90;;;;;;;;;;5109154;27;20468;-73
2022/06/04 10:47:20;;;;;;;1999.90;999.90;;;;;;;;;;5112521;27;21028;-73
2022/06/04 10:50:00;;;;;;;1999.90;999.90;;;;;;;;;;5107146;27;20398;-74
2022/06/04 10:52:33;;;;;;;1999.90;999.90;;;;;;;;;;5111761;27;20441;-74
2022/06/04 10:55:06;;;;;;;1999.90;999.90;;;;;;;;;;5109671;27;20415;-72
2022/06/04 10:57:37;;;;;;;1999.90;999.90;;;;;;;;;;5111628;27;20416;-74
2022/06/04 11:00:10;;;;;;;1999.90;999.90;;;;;;;;;;5114454;27;21759;-71
2022/06/04 11:02:40;;;;;;;1999.90;999.90;;;;;;;;;;5106456;27;20573;-74
2022/06/04 11:05:13;;;;;;;1999.90;999.90;;;;;;;;;;5109942;27;20886;-72
2022/06/04 11:07:52;;;;;;;1999.90;999.90;;;;;;;;;;5108987;27;20407;-72
2022/06/04 11:10:22;;;;;;;1999.90;999.90;;;;;;;;;;5087882;27;20892;-72
2022/06/04 11:12:59;;;;;;;1999.90;999.90;;;;;;;;;;5110596;27;20412;-72
2022/06/04 11:15:30;;;;;;;1999.90;999.90;;;;;;;;;;5109779;27;20414;-72
2022/06/04 11:18:01;;;;;;;1999.90;999.90;;;;;;;;;;5108685;27;20530;-72
2022/06/04 11:20:31;;;;;;;1999.90;999.90;;;;;;;;;;5104961;27;21115;-72
2022/06/04 11:23:04;;;;;;;1999.90;999.90;;;;;;;;;;5088050;27;20397;-73
2022/06/04 11:25:34;;;;;;;1999.90;999.90;;;;;;;;;;5115262;27;21526;-73
2022/06/04 11:28:04;;;;;;;1999.90;999.90;;;;;;;;;;5089551;27;20911;-72
2022/06/04 11:30:46;;;;;;;1999.90;999.90;;;;;;;;;;5109279;27;20383;-73
2022/06/04 11:33:19;;;;;;;1999.90;999.90;;;;;;;;;;5106175;27;20393;-73
2022/06/04 11:35:50;;;;;;;1999.90;999.90;;;;;;;;;;5117938;27;20415;-72
2022/06/04 11:38:25;;;;;;;1999.90;999.90;;;;;;;;;;5107797;27;20898;-73
2022/06/04 11:40:58;;;;;;;1999.90;999.90;;;;;;;;;;5110247;27;21012;-72
2022/06/04 11:43:35;;;;;;;1999.90;999.90;;;;;;;;;;5109316;27;20451;-75
2022/06/04 11:46:08;;;;;;;1999.90;999.90;;;;;;;;;;5112372;27;20409;-76
2022/06/04 11:48:53;;;;;;;1999.90;999.90;;;;;;;;;;5109929;27;20994;-75
2022/06/04 11:51:32;;;;;;;1999.90;999.90;;;;;;;;;;5115107;27;20387;-73
2022/06/04 11:54:04;;;;;;;1999.90;999.90;;;;;;;;;;5097750;27;20413;-73
2022/06/04 11:56:36;;;;;;;1999.90;999.90;;;;;;;;;;5114026;27;20396;-72
2022/06/04 11:59:13;;;;;;;1999.90;999.90;;;;;;;;;;5112683;27;21027;-72
2022/06/04 12:01:43;;;;;;;1999.90;999.90;;;;;;;;;;5111402;27;20426;-73
2022/06/04 12:04:17;;;;;;;1999.90;999.90;;;;;;;;;;5106175;27;20406;-73
2022/06/04 12:06:49;;;;;;;1999.90;999.90;;;;;;;;;;5116403;27;20477;-72
2022/06/04 12:09:29;;;;;;;1999.90;999.90;;;;;;;;;;5119106;27;20397;-73
2022/06/04 12:11:59;;;;;;;1999.90;999.90;;;;;;;;;;5109920;27;20791;-73
2022/06/04 12:14:31;;;;;;;1999.90;999.90;;;;;;;;;;5108474;27;20466;-73
2022/06/04 12:17:11;;;;;;;1999.90;999.90;;;;;;;;;;5111266;27;20479;-72
2022/06/04 12:25:16;;;;;;;1999.90;999.90;;;;;;;;;;5108752;27;20416;-73
2022/06/04 12:27:55;;;;;;;1999.90;999.90;;;;;;;;;;5118178;27;20519;-73
2022/06/04 12:30:34;;;;;;;1999.90;999.90;;;;;;;;;;5120263;27;21644;-73
2022/06/04 12:33:04;;;;;;;1999.90;999.90;;;;;;;;;;5108162;27;20757;-73
2022/06/04 12:35:32;;;;;;;1999.90;999.90;;;;;;;;;;5109519;27;20396;-73
2022/06/04 12:38:00;;;;;;;1999.90;999.90;;;;;;;;;;5123355;27;20387;-73
2022/06/04 12:40:31;;;;;;;1999.90;999.90;;;;;;;;;;5105983;27;20409;-73
2022/06/04 12:43:01;;;;;;;1999.90;999.90;;;;;;;;;;5107124;27;20383;-73
2022/06/04 12:45:35;;;;;;;1999.90;999.90;;;;;;;;;;5108170;27;20906;-73
2022/06/04 12:48:19;;;;;;;1999.90;999.90;;;;;;;;;;5106638;27;21615;-76
2022/06/04 12:50:48;;;;;;;1999.90;999.90;;;;;;;;;;5104672;27;20424;-76
2022/06/04 12:53:18;;;;;;;1999.90;999.90;;;;;;;;;;5102751;27;21328;-76
2022/06/04 12:55:49;;;;;;;1999.90;999.90;;;;;;;;;;5108565;27;20920;-76
2022/06/04 12:58:28;;;;;;;1999.90;999.90;;;;;;;;;;5110098;27;20778;-76
2022/06/04 13:00:57;;;;;;;1999.90;999.90;;;;;;;;;;5110038;27;20464;-76
2022/06/04 13:03:36;;;;;;;1999.90;999.90;;;;;;;;;;5108711;27;20390;-76
2022/06/04 13:06:28;;;;;;;1999.90;999.90;;;;;;;;;;5089647;27;20474;-76
2022/06/04 13:09:05;;;;;;;1999.90;999.90;;;;;;;;;;5107260;27;20403;-76
2022/06/04 13:11:44;;;;;;;1999.90;999.90;;;;;;;;;;5109121;27;20502;-76
2022/06/04 13:14:20;;;;;;;1999.90;999.90;;;;;;;;;;5112659;27;20394;-76
2022/06/04 13:16:50;;;;;;;1999.90;999.90;;;;;;;;;;5098420;27;20401;-76
2022/06/04 13:19:29;;;;;;;1999.90;999.90;;;;;;;;;;5108695;27;20472;-76
2022/06/04 13:21:59;;;;;;;1999.90;999.90;;;;;;;;;;5109118;27;20501;-76
2022/06/04 13:24:28;;;;;;;1999.90;999.90;;;;;;;;;;5111985;27;20502;-76
2022/06/04 13:27:02;;;;;;;1999.90;999.90;;;;;;;;;;5130155;27;20701;-77
2022/06/04 13:29:34;;;;;;;1999.90;999.90;;;;;;;;;;5094793;27;20438;-76
2022/06/04 13:32:04;;;;;;;1999.90;999.90;;;;;;;;;;5110837;27;20421;-76
2022/06/04 13:34:33;;;;;;;1999.90;999.90;;;;;;;;;;5115773;27;20988;-76
2022/06/04 13:37:02;;;;;;;1999.90;999.90;;;;;;;;;;5117363;27;20404;-76
2022/06/04 13:39:30;;;;;;;1999.90;999.90;;;;;;;;;;5107222;27;20512;-76
2022/06/04 13:42:09;;;;;;;1999.90;999.90;;;;;;;;;;5111314;27;20403;-76
2022/06/04 13:44:38;;;;;;;1999.90;999.90;;;;;;;;;;5121150;27;20395;-77
2022/06/04 13:47:07;;;;;;;1999.90;999.90;;;;;;;;;;5107577;27;20391;-76
2022/06/04 13:49:35;;;;;;;1999.90;999.90;;;;;;;;;;5107201;27;20388;-75
2022/06/04 13:52:04;;;;;;;1999.90;999.90;;;;;;;;;;5110311;27;20422;-78
2022/06/04 13:54:39;;;;;;;1999.90;999.90;;;;;;;;;;5091336;27;21360;-77
2022/06/04 13:57:15;;;;;;;1999.90;999.90;;;;;;;;;;5111972;27;20403;-75
2022/06/04 13:59:44;;;;;;;1999.90;999.90;;;;;;;;;;5111609;27;20392;-76
2022/06/04 14:02:15;;;;;;;1999.90;999.90;;;;;;;;;;5111724;27;20488;-75
2022/06/04 14:07:39;;;;;;;1999.90;999.90;;;;;;;;;;5060335;27;20427;-75
2022/06/04 14:10:12;;;;;;;1999.90;999.90;;;;;;;;;;5109770;27;20418;-76
2022/06/04 14:12:45;;;;;;;1999.90;999.90;;;;;;;;;;5119854;27;20523;-76
2022/06/04 14:15:17;;;;;;;1999.90;999.90;;;;;;;;;;5116139;27;20397;-76
2022/06/04 14:18:07;;;;;;;1999.90;999.90;;;;;;;;;;5113654;27;20923;-76
2022/06/04 14:20:39;;;;;;;1999.90;999.90;;;;;;;;;;5112230;27;20630;-75
2022/06/04 14:23:17;;;;;;;1999.90;999.90;;;;;;;;;;5109484;27;20504;-76
2022/06/04 14:25:48;;;;;;;1999.90;999.90;;;;;;;;;;5126163;22;20441;-66
2022/06/04 14:28:23;;;;;;;1999.90;999.90;;;;;;;;;;5102796;27;20436;-68
2022/06/04 14:30:54;;;;;;;1999.90;999.90;;;;;;;;;;5100562;27;20411;-68
2022/06/04 14:33:22;;;;;;;1999.90;999.90;;;;;;;;;;5106147;27;20452;-68
2022/06/04 14:35:58;;;;;;;1999.90;999.90;;;;;;;;;;5098548;27;20260;-67
2022/06/04 14:38:26;;;;;;;1999.90;999.90;;;;;;;;;;5097618;27;20720;-68
2022/06/04 14:41:00;;;;;;;1999.90;999.90;;;;;;;;;;5097416;27;20241;-67
2022/06/04 14:43:36;;;;;;;1999.90;999.90;;;;;;;;;;5096049;27;20238;-69
2022/06/04 14:46:14;;;;;;;1999.90;999.90;;;;;;;;;;5095935;27;20414;-69
2022/06/04 14:48:57;;;;;;;1999.90;999.90;;;;;;;;;;5097482;27;21065;-72
2022/06/04 14:51:36;;;;;;;1999.90;999.90;;;;;;;;;;5097269;27;20418;-70
2022/06/04 14:54:05;;;;;;;1999.90;999.90;;;;;;;;;;5082562;27;21528;-70
2022/06/04 14:56:51;;;;;;;1999.90;999.90;;;;;;;;;;5097309;27;21816;-67